Time;durP1;ratioP1;P1;durP2;ratioP2;P2;SDS_P1;SDS_P2;PMS_P1;PMS_P2;Temp;Humidity;BMP_temperature;BMP_pressure;BME280_temperature;BME280_humidity;BME280_pressure;Samples;Min_cycle;Max_cycle;Signal;HPM_P1;HPM_P2
2023/01/01 00:01:58;;;;;;;;;;;13.30;99.90;;;;;;5073548;28;19989;-90
2023/01/01 00:04:24;;;;;;;;;;;13.20;99.90;;;;;;5066056;28;20365;-90
2023/01/01 00:06:50;;;;;;;;;;;13.20;99.90;;;;;;5059187;28;19920;-90
2023/01/01 00:12:00;;;;;;;;;;;13.00;99.90;;;;;;5089710;28;20344;-91
2023/01/01 00:14:26;;;;;;;;;;;13.00;99.90;;;;;;5074566;28;19975;-91
2023/01/01 00:16:55;;;;;;;;;;;12.90;99.90;;;;;;5072242;28;19927;-92
2023/01/01 00:19:21;;;;;;;;;;;13.10;99.90;;;;;;5060383;28;19997;-90
2023/01/01 00:21:46;;;;;;;;;;;13.10;99.90;;;;;;5070905;28;20361;-91
2023/01/01 00:24:12;;;;;;;;;;;13.00;99.90;;;;;;5084946;28;19920;-90
2023/01/01 00:26:38;;;;;;;;;;;13.10;99.90;;;;;;5070510;28;20346;-91
2023/01/01 00:29:03;;;;;;;;;;;13.10;99.90;;;;;;5067832;28;19923;-90
2023/01/01 00:31:29;;;;;;;;;;;13.00;99.90;;;;;;5065107;28;20428;-91
2023/01/01 00:33:55;;;;;;;;;;;13.10;99.90;;;;;;5072350;28;20292;-89
2023/01/01 00:36:22;;;;;;;;;;;13.10;99.90;;;;;;5092923;28;19934;-90
2023/01/01 00:38:47;;;;;;;;;;;13.20;99.90;;;;;;5073143;28;19920;-90
2023/01/01 00:41:14;;;;;;;;;;;13.20;99.90;;;;;;5099142;28;19930;-90
2023/01/01 00:43:40;;;;;;;;;;;13.10;99.90;;;;;;5111688;28;19924;-89
2023/01/01 00:46:09;;;;;;;;;;;13.20;99.90;;;;;;5105873;28;19952;-90
2023/01/01 00:48:35;;;;;;;;;;;13.20;99.90;;;;;;5102598;28;19920;-91
2023/01/01 00:51:01;;;;;;;;;;;13.10;99.90;;;;;;5077588;28;20425;-91
2023/01/01 00:53:26;;;;;;;;;;;13.20;99.90;;;;;;5075607;28;20448;-90
2023/01/01 00:55:53;;;;;;;;;;;13.20;99.90;;;;;;5057656;28;19943;-90
2023/01/01 00:58:19;;;;;;;;;;;13.30;99.90;;;;;;5087341;28;20003;-90
2023/01/01 01:00:45;;;;;;;;;;;13.30;99.90;;;;;;5072881;28;20388;-90
2023/01/01 01:03:26;;;;;;;;;;;13.30;99.90;;;;;;5075033;28;19950;-88
2023/01/01 01:06:07;;;;;;;;;;;13.20;99.90;;;;;;5073973;28;19935;-90
2023/01/01 01:08:34;;;;;;;;;;;13.30;99.90;;;;;;5086389;28;19927;-90
2023/01/01 01:11:23;;;;;;;;;;;13.30;99.90;;;;;;5072850;28;20395;-90
2023/01/01 01:13:50;;;;;;;;;;;13.30;99.90;;;;;;5081820;28;19931;-89
2023/01/01 01:16:17;;;;;;;;;;;13.30;99.90;;;;;;5089578;28;19919;-90
2023/01/01 01:18:42;;;;;;;;;;;13.30;99.90;;;;;;5070249;28;19920;-90
2023/01/01 01:21:08;;;;;;;;;;;13.30;99.90;;;;;;5070666;28;19927;-89
2023/01/01 01:23:34;;;;;;;;;;;13.20;99.90;;;;;;5073148;28;19927;-90
2023/01/01 01:26:29;;;;;;;;;;;13.20;99.90;;;;;;5070181;27;19920;-89
2023/01/01 01:28:54;;;;;;;;;;;13.20;99.90;;;;;;5092722;28;19928;-89
2023/01/01 01:31:21;;;;;;;;;;;13.10;99.90;;;;;;5050155;28;19935;-90
2023/01/01 01:33:47;;;;;;;;;;;13.20;99.90;;;;;;5087614;28;20285;-90
2023/01/01 01:36:14;;;;;;;;;;;13.20;99.90;;;;;;5085038;27;20020;-90
2023/01/01 01:38:40;;;;;;;;;;;13.20;99.90;;;;;;5086983;28;19920;-90
2023/01/01 01:41:06;;;;;;;;;;;13.20;99.90;;;;;;5087626;28;19931;-89
2023/01/01 01:43:31;;;;;;;;;;;13.20;99.90;;;;;;5055890;28;20168;-90
2023/01/01 01:46:02;;;;;;;;;;;13.20;99.90;;;;;;5069087;28;20053;-90
2023/01/01 01:48:28;;;;;;;;;;;13.30;99.90;;;;;;5086069;27;20411;-90
2023/01/01 01:50:55;;;;;;;;;;;13.30;99.90;;;;;;5055416;28;20366;-90
2023/01/01 01:53:25;;;;;;;;;;;13.30;99.90;;;;;;5054570;28;19923;-90
2023/01/01 01:56:01;;;;;;;;;;;13.20;99.90;;;;;;5070422;28;19928;-89
2023/01/01 01:58:28;;;;;;;;;;;13.10;99.90;;;;;;5069662;28;19920;-89
2023/01/01 02:00:54;;;;;;;;;;;13.00;99.90;;;;;;5066863;28;19920;-90
2023/01/01 02:03:25;;;;;;;;;;;13.00;99.90;;;;;;5056546;27;19920;-89
2023/01/01 02:05:51;;;;;;;;;;;13.00;99.90;;;;;;5088358;28;20053;-91
2023/01/01 02:08:18;;;;;;;;;;;13.00;99.90;;;;;;5051543;28;19999;-91
2023/01/01 02:10:43;;;;;;;;;;;13.00;99.90;;;;;;5067502;28;19928;-89
2023/01/01 02:13:09;;;;;;;;;;;12.90;99.90;;;;;;5055843;28;19931;-90
2023/01/01 02:15:41;;;;;;;;;;;12.90;99.90;;;;;;5070214;28;19930;-91
2023/01/01 02:18:10;;;;;;;;;;;12.80;99.90;;;;;;5069745;28;19928;-90
2023/01/01 02:20:54;;;;;;;;;;;13.00;99.90;;;;;;5068528;28;19927;-91
2023/01/01 02:23:24;;;;;;;;;;;13.00;99.90;;;;;;5068399;28;20588;-89
2023/01/01 02:25:49;;;;;;;;;;;13.00;99.90;;;;;;5071818;28;19942;-90
2023/01/01 02:28:15;;;;;;;;;;;13.00;99.90;;;;;;5070525;28;20380;-91
2023/01/01 02:30:42;;;;;;;;;;;13.00;99.90;;;;;;5085543;28;19962;-90
2023/01/01 02:33:11;;;;;;;;;;;13.00;99.90;;;;;;5086769;28;20479;-90
2023/01/01 02:35:41;;;;;;;;;;;13.00;99.90;;;;;;5090355;27;19924;-91
2023/01/01 02:38:14;;;;;;;;;;;13.00;99.90;;;;;;5071570;28;19923;-89
2023/01/01 02:40:41;;;;;;;;;;;13.10;99.90;;;;;;5065973;28;19920;-90
2023/01/01 02:43:07;;;;;;;;;;;13.10;99.90;;;;;;5069027;28;20692;-91
2023/01/01 02:45:32;;;;;;;;;;;13.20;99.90;;;;;;5053602;28;19927;-90
2023/01/01 02:48:02;;;;;;;;;;;13.20;99.90;;;;;;5052775;28;20365;-91
2023/01/01 02:50:28;;;;;;;;;;;13.20;99.90;;;;;;5070148;28;19920;-91
2023/01/01 02:53:03;;;;;;;;;;;13.40;99.90;;;;;;5070087;28;19920;-90
2023/01/01 02:55:36;;;;;;;;;;;13.40;99.90;;;;;;5070590;27;20541;-90
2023/01/01 03:00:17;;;;;;;;;;;13.30;99.90;;;;;;5069266;28;20507;-90
2023/01/01 03:00:47;;;;;;;;;;;13.30;99.90;;;;;;5085622;28;20385;-90
2023/01/01 03:03:48;;;;;;;;;;;13.30;99.90;;;;;;5053144;28;19920;-90
2023/01/01 03:06:24;;;;;;;;;;;13.20;99.90;;;;;;4997865;28;20347;-90
2023/01/01 03:09:02;;;;;;;;;;;13.30;99.90;;;;;;5078485;28;20168;-90
2023/01/01 03:11:33;;;;;;;;;;;13.20;99.90;;;;;;5061593;28;20430;-90
2023/01/01 03:14:05;;;;;;;;;;;13.30;99.90;;;;;;5088529;27;19924;-90
2023/01/01 03:16:43;;;;;;;;;;;13.30;99.90;;;;;;5084004;28;19930;-90
2023/01/01 03:19:15;;;;;;;;;;;13.40;99.90;;;;;;5085585;28;22179;-90
2023/01/01 03:21:47;;;;;;;;;;;13.40;99.90;;;;;;5071822;28;20304;-90
2023/01/01 03:24:19;;;;;;;;;;;13.40;99.90;;;;;;5087569;28;19920;-90
2023/01/01 03:26:47;;;;;;;;;;;13.40;99.90;;;;;;5069568;28;19934;-90
2023/01/01 03:29:12;;;;;;;;;;;13.60;99.90;;;;;;5070940;28;19926;-90
2023/01/01 03:31:41;;;;;;;;;;;13.60;99.90;;;;;;5049168;28;20006;-90
2023/01/01 03:34:12;;;;;;;;;;;13.60;99.90;;;;;;5069014;28;19935;-91
2023/01/01 03:36:39;;;;;;;;;;;13.80;99.90;;;;;;5087973;28;19927;-90
2023/01/01 03:39:09;;;;;;;;;;;13.80;99.90;;;;;;5071879;28;20006;-90
2023/01/01 03:41:36;;;;;;;;;;;13.70;99.90;;;;;;5070079;28;20359;-90
2023/01/01 03:44:17;;;;;;;;;;;13.80;99.90;;;;;;5071160;28;20432;-91
2023/01/01 03:46:43;;;;;;;;;;;13.80;99.90;;;;;;5070366;28;19998;-89
2023/01/01 03:49:10;;;;;;;;;;;13.90;99.90;;;;;;5072331;28;20022;-90
2023/01/01 03:51:38;;;;;;;;;;;13.90;99.90;;;;;;5068387;28;19920;-91
2023/01/01 03:54:11;;;;;;;;;;;13.90;99.90;;;;;;5086768;28;19932;-89
2023/01/01 03:56:39;;;;;;;;;;;13.90;99.90;;;;;;5086246;28;19926;-90
2023/01/01 03:59:12;;;;;;;;;;;13.80;99.90;;;;;;5069538;28;19919;-90
2023/01/01 04:01:47;;;;;;;;;;;13.80;99.90;;;;;;5067631;28;19931;-90
2023/01/01 04:04:14;;;;;;;;;;;13.90;99.90;;;;;;5073522;28;19943;-91
2023/01/01 04:06:40;;;;;;;;;;;13.80;99.90;;;;;;5087399;28;19920;-90
2023/01/01 04:09:08;;;;;;;;;;;13.80;99.90;;;;;;5067678;28;19920;-90
2023/01/01 04:14:34;;;;;;;;;;;13.80;99.90;;;;;;5093286;28;19912;-90
2023/01/01 04:17:00;;;;;;;;;;;13.80;99.90;;;;;;5089951;28;19981;-90
2023/01/01 04:19:26;;;;;;;;;;;13.90;99.90;;;;;;5081936;28;19957;-91
2023/01/01 04:21:52;;;;;;;;;;;13.80;99.90;;;;;;5093823;28;19920;-89
2023/01/01 04:24:17;;;;;;;;;;;13.80;99.90;;;;;;5071045;28;19928;-89
2023/01/01 04:26:43;;;;;;;;;;;13.90;99.90;;;;;;5051477;28;20430;-90
2023/01/01 04:29:09;;;;;;;;;;;14.00;99.90;;;;;;5055922;28;19968;-89
2023/01/01 04:31:34;;;;;;;;;;;14.00;99.90;;;;;;5077660;28;19919;-90
2023/01/01 04:34:00;;;;;;;;;;;13.90;99.90;;;;;;5053670;28;19920;-90
2023/01/01 04:36:25;;;;;;;;;;;13.90;99.90;;;;;;5072270;28;20148;-90
2023/01/01 04:38:51;;;;;;;;;;;13.90;99.90;;;;;;5089556;28;19929;-90
2023/01/01 04:41:17;;;;;;;;;;;13.80;99.90;;;;;;5085501;28;19920;-90
2023/01/01 04:43:45;;;;;;;;;;;13.80;99.90;;;;;;5069385;27;19926;-90
2023/01/01 04:46:11;;;;;;;;;;;13.80;99.90;;;;;;5071403;27;19942;-91
2023/01/01 04:48:36;;;;;;;;;;;13.90;99.90;;;;;;5057487;27;20381;-90
2023/01/01 04:51:03;;;;;;;;;;;13.80;99.90;;;;;;5049393;28;19927;-91
2023/01/01 04:53:30;;;;;;;;;;;13.80;99.90;;;;;;5068613;28;19947;-91
2023/01/01 04:56:01;;;;;;;;;;;13.90;99.90;;;;;;5072260;28;20471;-91
2023/01/01 04:58:27;;;;;;;;;;;13.90;99.90;;;;;;5086752;28;19953;-91
2023/01/01 05:00:52;;;;;;;;;;;13.80;99.90;;;;;;5073699;28;20436;-91
2023/01/01 05:03:18;;;;;;;;;;;13.80;99.90;;;;;;5056271;27;19927;-90
2023/01/01 05:05:44;;;;;;;;;;;13.80;99.90;;;;;;5089132;28;19999;-91
2023/01/01 05:08:09;;;;;;;;;;;13.90;99.90;;;;;;5051645;28;19919;-91
2023/01/01 05:10:35;;;;;;;;;;;13.90;99.90;;;;;;5052259;27;19963;-90
2023/01/01 05:13:00;;;;;;;;;;;13.80;99.90;;;;;;5055936;27;19928;-90
2023/01/01 05:15:26;;;;;;;;;;;13.80;99.90;;;;;;5071867;28;20203;-90
2023/01/01 05:17:53;;;;;;;;;;;13.70;99.90;;;;;;5073385;28;20416;-90
2023/01/01 05:20:18;;;;;;;;;;;13.70;99.90;;;;;;5073423;27;20030;-91
2023/01/01 05:22:44;;;;;;;;;;;13.70;99.90;;;;;;5073043;28;20014;-89
2023/01/01 05:25:10;;;;;;;;;;;13.70;99.90;;;;;;5067855;28;20207;-90
2023/01/01 05:27:35;;;;;;;;;;;13.60;99.90;;;;;;5056133;28;19945;-90
2023/01/01 05:30:01;;;;;;;;;;;13.60;99.90;;;;;;5071410;28;19920;-90
2023/01/01 05:32:27;;;;;;;;;;;13.60;99.90;;;;;;5072676;28;20022;-90
2023/01/01 05:34:53;;;;;;;;;;;13.60;99.90;;;;;;5056486;27;20407;-90
2023/01/01 05:37:18;;;;;;;;;;;13.60;99.90;;;;;;5049376;27;20300;-90
2023/01/01 05:39:44;;;;;;;;;;;13.50;99.90;;;;;;5067692;28;19924;-90
2023/01/01 05:42:09;;;;;;;;;;;13.50;99.90;;;;;;5059974;28;19927;-89
2023/01/01 05:44:35;;;;;;;;;;;13.50;99.90;;;;;;5086366;28;19923;-90
2023/01/01 05:47:00;;;;;;;;;;;13.40;99.90;;;;;;5074724;28;19926;-87
2023/01/01 05:49:27;;;;;;;;;;;13.40;99.90;;;;;;5085998;28;19923;-89
2023/01/01 05:51:52;;;;;;;;;;;13.40;99.90;;;;;;5054277;28;20061;-88
2023/01/01 05:54:18;;;;;;;;;;;13.40;99.90;;;;;;5050333;28;20022;-89
2023/01/01 05:56:43;;;;;;;;;;;13.40;99.90;;;;;;5089568;28;19944;-88
2023/01/01 05:59:09;;;;;;;;;;;13.30;99.90;;;;;;5055619;28;20301;-87
2023/01/01 06:01:35;;;;;;;;;;;13.30;99.90;;;;;;5052481;28;19923;-88
2023/01/01 06:04:00;;;;;;;;;;;13.30;99.90;;;;;;5068577;28;20518;-88
2023/01/01 06:06:28;;;;;;;;;;;13.30;99.90;;;;;;5071321;28;20054;-87
2023/01/01 06:08:54;;;;;;;;;;;13.20;99.90;;;;;;5066180;27;19982;-88
2023/01/01 06:11:20;;;;;;;;;;;13.20;99.90;;;;;;5068365;28;19920;-87
2023/01/01 06:13:46;;;;;;;;;;;13.20;99.90;;;;;;5053489;27;19934;-88
2023/01/01 06:16:12;;;;;;;;;;;13.20;99.90;;;;;;5070129;28;20781;-88
2023/01/01 06:18:37;;;;;;;;;;;13.10;99.90;;;;;;5068675;27;19923;-88
2023/01/01 06:21:12;;;;;;;;;;;13.10;99.90;;;;;;5052268;28;20269;-88
2023/01/01 06:23:37;;;;;;;;;;;13.00;99.90;;;;;;5088111;28;19927;-87
2023/01/01 06:26:04;;;;;;;;;;;13.00;99.90;;;;;;5066828;28;19923;-88
2023/01/01 06:28:30;;;;;;;;;;;12.90;99.90;;;;;;5067735;28;20391;-88
2023/01/01 06:30:58;;;;;;;;;;;12.90;99.90;;;;;;5052787;28;19919;-88
2023/01/01 06:33:23;;;;;;;;;;;12.80;99.90;;;;;;5066962;28;20019;-88
2023/01/01 06:35:49;;;;;;;;;;;12.80;99.90;;;;;;5053487;28;20014;-88
2023/01/01 06:38:14;;;;;;;;;;;12.70;99.90;;;;;;5054550;27;19920;-88
2023/01/01 06:40:40;;;;;;;;;;;12.80;99.90;;;;;;5052568;28;19978;-88
2023/01/01 06:43:06;;;;;;;;;;;12.70;99.90;;;;;;5068126;28;19972;-89
2023/01/01 06:45:31;;;;;;;;;;;12.70;99.90;;;;;;5071131;27;19924;-87
2023/01/01 06:47:57;;;;;;;;;;;12.70;99.90;;;;;;5069069;28;20549;-89
2023/01/01 06:50:22;;;;;;;;;;;12.70;99.90;;;;;;5068990;28;19923;-88
2023/01/01 06:52:48;;;;;;;;;;;12.70;99.90;;;;;;5067782;28;19928;-88
2023/01/01 06:55:14;;;;;;;;;;;12.60;99.90;;;;;;5052864;28;20400;-89
2023/01/01 06:57:39;;;;;;;;;;;12.60;99.90;;;;;;5055048;28;19927;-89
2023/01/01 07:00:05;;;;;;;;;;;12.50;99.90;;;;;;5053399;28;20288;-88
2023/01/01 07:02:31;;;;;;;;;;;12.50;99.90;;;;;;5071039;28;19977;-88
2023/01/01 07:04:56;;;;;;;;;;;12.50;99.90;;;;;;5088701;28;19920;-88
2023/01/01 07:07:22;;;;;;;;;;;12.50;99.90;;;;;;5050766;28;19919;-88
2023/01/01 07:09:47;;;;;;;;;;;12.50;99.90;;;;;;5055390;28;19920;-88
2023/01/01 07:12:13;;;;;;;;;;;12.50;99.90;;;;;;5049774;27;19971;-88
2023/01/01 07:14:38;;;;;;;;;;;12.40;99.90;;;;;;5088384;28;20052;-87
2023/01/01 07:17:04;;;;;;;;;;;12.40;99.90;;;;;;5052364;28;20182;-87
2023/01/01 07:19:30;;;;;;;;;;;12.40;99.90;;;;;;5086807;28;19977;-88
2023/01/01 07:21:55;;;;;;;;;;;12.40;99.90;;;;;;5070067;28;19920;-88
2023/01/01 07:24:21;;;;;;;;;;;12.40;99.90;;;;;;5087495;28;20003;-88
2023/01/01 07:26:47;;;;;;;;;;;12.40;99.90;;;;;;5070081;28;20003;-88
2023/01/01 07:29:13;;;;;;;;;;;12.40;99.90;;;;;;5068073;28;19919;-88
2023/01/01 07:31:39;;;;;;;;;;;12.40;99.90;;;;;;5068513;28;20308;-88
2023/01/01 07:34:06;;;;;;;;;;;12.40;99.90;;;;;;5069940;28;19923;-88
2023/01/01 07:36:31;;;;;;;;;;;12.40;99.90;;;;;;5069717;28;20377;-88
2023/01/01 07:38:57;;;;;;;;;;;12.30;99.90;;;;;;5050149;28;19938;-88
2023/01/01 07:41:22;;;;;;;;;;;12.30;99.90;;;;;;5049298;28;20923;-89
2023/01/01 07:43:48;;;;;;;;;;;12.30;99.90;;;;;;5072264;28;19981;-89
2023/01/01 07:46:15;;;;;;;;;;;12.30;99.90;;;;;;5088163;28;19919;-88
2023/01/01 07:48:41;;;;;;;;;;;12.30;99.90;;;;;;5076228;28;19907;-89
2023/01/01 07:51:06;;;;;;;;;;;12.20;99.90;;;;;;5068887;28;19924;-89
2023/01/01 07:53:32;;;;;;;;;;;12.20;99.90;;;;;;5077412;28;19981;-89
2023/01/01 07:55:58;;;;;;;;;;;12.20;99.90;;;;;;5073511;28;19985;-89
2023/01/01 07:58:23;;;;;;;;;;;12.20;99.90;;;;;;5052521;28;20284;-89
2023/01/01 08:00:49;;;;;;;;;;;12.20;99.90;;;;;;5086135;28;20387;-88
2023/01/01 08:03:15;;;;;;;;;;;12.30;99.90;;;;;;5054371;28;19922;-89
2023/01/01 08:05:40;;;;;;;;;;;12.30;99.90;;;;;;5074308;27;19920;-88
2023/01/01 08:08:06;;;;;;;;;;;12.20;99.90;;;;;;5072785;28;19924;-89
2023/01/01 08:10:31;;;;;;;;;;;12.20;99.90;;;;;;5058075;27;20393;-88
2023/01/01 08:12:58;;;;;;;;;;;12.20;99.90;;;;;;5071798;28;19924;-88
2023/01/01 08:15:23;;;;;;;;;;;12.20;99.90;;;;;;5074184;28;20369;-88
2023/01/01 08:17:49;;;;;;;;;;;12.10;99.90;;;;;;5070908;28;19927;-88
2023/01/01 08:20:15;;;;;;;;;;;12.10;99.90;;;;;;5073542;28;20392;-88
2023/01/01 08:22:40;;;;;;;;;;;12.10;99.90;;;;;;5088716;28;19931;-89
2023/01/01 08:25:06;;;;;;;;;;;12.10;99.90;;;;;;5072532;28;19920;-89
2023/01/01 08:27:32;;;;;;;;;;;12.10;99.90;;;;;;5072395;28;19934;-89
2023/01/01 08:29:57;;;;;;;;;;;12.10;99.90;;;;;;5071809;27;19919;-89
2023/01/01 08:32:23;;;;;;;;;;;12.00;99.90;;;;;;5084009;28;19919;-90
2023/01/01 08:34:48;;;;;;;;;;;12.00;99.90;;;;;;5069734;28;19969;-88
2023/01/01 08:37:14;;;;;;;;;;;12.00;99.90;;;;;;5072822;28;19935;-89
2023/01/01 08:39:40;;;;;;;;;;;12.00;99.90;;;;;;5075215;28;19920;-90
2023/01/01 08:42:06;;;;;;;;;;;12.00;99.90;;;;;;5090227;28;20338;-89
2023/01/01 08:44:32;;;;;;;;;;;11.80;99.90;;;;;;5086805;28;19920;-89
2023/01/01 08:46:57;;;;;;;;;;;12.00;99.90;;;;;;5069364;28;19920;-90
2023/01/01 08:49:23;;;;;;;;;;;12.00;99.90;;;;;;5089684;28;19976;-89
2023/01/01 08:51:48;;;;;;;;;;;12.00;99.90;;;;;;5066511;28;20015;-89
2023/01/01 08:54:14;;;;;;;;;;;12.00;99.90;;;;;;5054490;28;19931;-89
2023/01/01 08:56:39;;;;;;;;;;;12.00;99.90;;;;;;5075601;28;20006;-89
2023/01/01 08:59:05;;;;;;;;;;;12.00;99.90;;;;;;5073953;28;20540;-88
2023/01/01 09:01:30;;;;;;;;;;;12.00;99.90;;;;;;5060775;28;19942;-89
2023/01/01 09:03:56;;;;;;;;;;;11.90;99.90;;;;;;5059878;28;20422;-87
2023/01/01 09:06:22;;;;;;;;;;;11.90;99.90;;;;;;5052117;28;19920;-89
2023/01/01 09:11:24;;;;;;;;;;;11.90;99.90;;;;;;2277014;22;19924;-88
2023/01/01 09:13:49;;;;;;;;;;;11.90;99.90;;;;;;5081610;28;19932;-88
2023/01/01 09:16:15;;;;;;;;;;;11.90;99.90;;;;;;5056299;28;19928;-88
2023/01/01 09:18:41;;;;;;;;;;;11.90;99.90;;;;;;5058927;28;19920;-89
2023/01/01 09:21:06;;;;;;;;;;;11.90;99.90;;;;;;5063953;28;19934;-87
2023/01/01 09:23:32;;;;;;;;;;;11.90;99.90;;;;;;5062431;28;19995;-89
2023/01/01 09:26:15;;;;;;;;;;;11.90;99.90;;;;;;5077299;28;19924;-87
2023/01/01 09:28:41;;;;;;;;;;;11.90;99.90;;;;;;5076666;28;19920;-89
2023/01/01 09:31:07;;;;;;;;;;;11.90;99.90;;;;;;5077818;28;20073;-89
2023/01/01 09:33:32;;;;;;;;;;;11.90;99.90;;;;;;5077920;28;19927;-89
2023/01/01 09:36:15;;;;;;;;;;;12.00;99.90;;;;;;5077618;28;19970;-88
2023/01/01 09:38:40;;;;;;;;;;;12.10;99.90;;;;;;5080401;28;19939;-88
2023/01/01 09:41:07;;;;;;;;;;;12.10;99.90;;;;;;5073603;28;19920;-88
2023/01/01 09:43:58;;;;;;;;;;;12.20;99.90;;;;;;5079802;28;19954;-88
2023/01/01 09:46:24;;;;;;;;;;;12.30;99.90;;;;;;5092397;28;19971;-88
2023/01/01 09:49:01;;;;;;;;;;;12.30;99.90;;;;;;5096731;28;19924;-89
2023/01/01 09:51:29;;;;;;;;;;;12.40;99.90;;;;;;5079015;28;20316;-89
2023/01/01 09:54:01;;;;;;;;;;;12.40;99.90;;;;;;5076130;28;19920;-88
2023/01/01 09:56:28;;;;;;;;;;;12.50;99.90;;;;;;5091707;28;19959;-88
2023/01/01 09:58:55;;;;;;;;;;;12.50;99.90;;;;;;5073458;28;19919;-88
2023/01/01 10:01:40;;;;;;;;;;;12.40;99.90;;;;;;5076071;28;19924;-88
2023/01/01 10:04:25;;;;;;;;;;;12.40;99.90;;;;;;5093171;28;19924;-89
2023/01/01 10:07:11;;;;;;;;;;;12.40;99.90;;;;;;5090036;28;19919;-88
2023/01/01 10:09:39;;;;;;;;;;;12.40;99.90;;;;;;5075112;28;20224;-88
2023/01/01 10:12:11;;;;;;;;;;;12.40;99.90;;;;;;5077577;28;20514;-87
2023/01/01 10:14:45;;;;;;;;;;;12.30;99.90;;;;;;5074234;28;19930;-88
2023/01/01 10:17:16;;;;;;;;;;;12.20;99.90;;;;;;5077768;28;19919;-89
2023/01/01 10:19:44;;;;;;;;;;;12.10;99.90;;;;;;5074450;28;19919;-89
2023/01/01 10:22:30;;;;;;;;;;;12.10;99.90;;;;;;5090099;28;19959;-88
2023/01/01 10:24:57;;;;;;;;;;;12.00;99.90;;;;;;5076741;28;19919;-89
2023/01/01 10:27:28;;;;;;;;;;;11.90;99.90;;;;;;5089357;28;20388;-89
2023/01/01 10:29:53;;;;;;;;;;;11.90;99.90;;;;;;5089970;28;19920;-88
2023/01/01 10:32:21;;;;;;;;;;;11.90;99.90;;;;;;5074351;28;20429;-89
2023/01/01 10:34:47;;;;;;;;;;;11.80;99.90;;;;;;5089034;28;20515;-88
2023/01/01 10:37:14;;;;;;;;;;;11.90;99.90;;;;;;5086058;28;19927;-89
2023/01/01 10:39:40;;;;;;;;;;;11.90;99.90;;;;;;5090117;28;19920;-89
2023/01/01 10:42:05;;;;;;;;;;;12.00;99.90;;;;;;5060487;28;19919;-90
2023/01/01 10:44:32;;;;;;;;;;;12.00;99.90;;;;;;5056099;28;21941;-90
2023/01/01 10:47:00;;;;;;;;;;;12.10;99.90;;;;;;5109217;28;20212;-88
2023/01/01 10:49:25;;;;;;;;;;;12.10;99.90;;;;;;5076477;28;19920;-90
2023/01/01 10:51:52;;;;;;;;;;;12.10;99.90;;;;;;5062305;28;20026;-90
2023/01/01 10:54:18;;;;;;;;;;;12.10;99.90;;;;;;5074069;28;20022;-91
2023/01/01 10:56:45;;;;;;;;;;;12.10;99.90;;;;;;5072630;28;19977;-91
2023/01/01 10:59:29;;;;;;;;;;;12.10;99.90;;;;;;5082489;28;20409;-86
2023/01/01 11:02:15;;;;;;;;;;;12.10;99.90;;;;;;5075135;28;19927;-86
2023/01/01 11:04:41;;;;;;;;;;;12.00;99.90;;;;;;5075056;28;19919;-94
2023/01/01 11:07:07;;;;;;;;;;;12.00;99.90;;;;;;5062478;28;20002;-91
2023/01/01 11:09:35;;;;;;;;;;;12.10;99.90;;;;;;5089937;28;19928;-92
2023/01/01 11:12:03;;;;;;;;;;;12.20;99.90;;;;;;5076018;28;19998;-96
2023/01/01 11:14:43;;;;;;;;;;;12.20;99.90;;;;;;5092329;28;20048;-94
2023/01/01 11:17:08;;;;;;;;;;;12.30;99.90;;;;;;5077278;28;19972;-90
2023/01/01 11:19:35;;;;;;;;;;;12.30;99.90;;;;;;5075176;28;20397;-93
2023/01/01 11:22:02;;;;;;;;;;;12.40;99.90;;;;;;5070689;28;19928;-81
2023/01/01 11:24:28;;;;;;;;;;;12.50;99.90;;;;;;5088111;28;19919;-82
2023/01/01 11:27:10;;;;;;;;;;;12.60;99.90;;;;;;5084974;28;19919;-85
2023/01/01 11:29:36;;;;;;;;;;;12.60;99.90;;;;;;5083313;28;19920;-83
2023/01/01 11:32:05;;;;;;;;;;;12.70;99.90;;;;;;5068857;28;19930;-84
2023/01/01 11:34:41;;;;;;;;;;;12.80;99.90;;;;;;5075260;28;20006;-86
2023/01/01 11:37:08;;;;;;;;;;;12.80;99.90;;;;;;5070321;28;19927;-84
2023/01/01 11:39:36;;;;;;;;;;;12.90;99.90;;;;;;5078390;28;19920;-85
2023/01/01 11:42:02;;;;;;;;;;;12.90;99.90;;;;;;5095341;28;19920;-86
2023/01/01 11:44:39;;;;;;;;;;;12.70;99.90;;;;;;5077662;28;19931;-86
2023/01/01 11:47:05;;;;;;;;;;;12.70;99.90;;;;;;5094124;28;19962;-87
2023/01/01 11:49:32;;;;;;;;;;;12.60;99.90;;;;;;5082460;28;19926;-85
2023/01/01 11:51:57;;;;;;;;;;;12.60;99.90;;;;;;5080062;28;20378;-87
2023/01/01 11:54:36;;;;;;;;;;;12.60;99.90;;;;;;5080663;28;19963;-87
2023/01/01 11:57:06;;;;;;;;;;;12.60;99.90;;;;;;5107959;28;19920;-86
2023/01/01 11:59:42;;;;;;;;;;;12.60;99.90;;;;;;5113439;28;19920;-85
2023/01/01 12:02:11;;;;;;;;;;;12.60;99.90;;;;;;5081191;28;19928;-87
2023/01/01 12:04:39;;;;;;;;;;;12.60;99.90;;;;;;5078822;28;19973;-87
2023/01/01 12:07:07;;;;;;;;;;;12.60;99.90;;;;;;5077784;28;19927;-88
2023/01/01 12:09:35;;;;;;;;;;;12.60;99.90;;;;;;5093366;28;19928;-85
2023/01/01 12:12:04;;;;;;;;;;;12.60;99.90;;;;;;5076918;28;19924;-86
2023/01/01 12:14:34;;;;;;;;;;;12.60;99.90;;;;;;5092594;28;20354;-85
2023/01/01 12:17:04;;;;;;;;;;;12.70;99.90;;;;;;5113862;28;19920;-84
2023/01/01 12:19:41;;;;;;;;;;;12.60;99.90;;;;;;5075622;28;19962;-88
2023/01/01 12:22:12;;;;;;;;;;;12.50;99.90;;;;;;5085695;28;19923;-86
2023/01/01 12:24:38;;;;;;;;;;;12.40;99.90;;;;;;5092240;28;19934;-85
2023/01/01 12:27:15;;;;;;;;;;;12.40;99.90;;;;;;5093209;28;19919;-86
2023/01/01 12:29:44;;;;;;;;;;;12.30;99.90;;;;;;5069246;28;19971;-84
2023/01/01 12:32:10;;;;;;;;;;;12.30;99.90;;;;;;5089499;28;19924;-82
2023/01/01 12:34:38;;;;;;;;;;;12.30;99.90;;;;;;5075466;28;20395;-93
2023/01/01 12:37:13;;;;;;;;;;;12.20;99.90;;;;;;5079876;28;19999;-91
2023/01/01 12:39:38;;;;;;;;;;;12.20;99.90;;;;;;5078227;28;19923;-92
2023/01/01 12:42:04;;;;;;;;;;;12.10;99.90;;;;;;5079703;28;19943;-91
2023/01/01 12:44:45;;;;;;;;;;;12.10;99.90;;;;;;5080519;28;19924;-92
2023/01/01 12:47:10;;;;;;;;;;;12.10;99.90;;;;;;5078051;28;20043;-92
2023/01/01 12:49:36;;;;;;;;;;;12.00;99.90;;;;;;5094715;28;20196;-92
2023/01/01 12:52:24;;;;;;;;;;;12.00;99.90;;;;;;5077493;28;19920;-93
2023/01/01 12:54:50;;;;;;;;;;;11.90;99.90;;;;;;5089130;28;19954;-93
2023/01/01 12:57:18;;;;;;;;;;;11.90;99.90;;;;;;5069498;28;19920;-93
2023/01/01 12:59:46;;;;;;;;;;;12.00;99.90;;;;;;5109492;28;19927;-94
2023/01/01 13:02:20;;;;;;;;;;;12.00;99.90;;;;;;5092415;28;19927;-93
2023/01/01 13:04:47;;;;;;;;;;;11.90;99.90;;;;;;5093953;28;19923;-94
2023/01/01 13:07:13;;;;;;;;;;;11.90;99.90;;;;;;5092885;28;19919;-88
2023/01/01 13:09:44;;;;;;;;;;;11.90;99.90;;;;;;5090947;28;19927;-92
2023/01/01 13:12:17;;;;;;;;;;;12.00;99.90;;;;;;5072706;28;19932;-92
2023/01/01 13:14:44;;;;;;;;;;;12.00;99.90;;;;;;5089007;28;19924;-91
2023/01/01 13:17:16;;;;;;;;;;;12.00;99.90;;;;;;5089282;28;19998;-92
2023/01/01 13:19:41;;;;;;;;;;;12.00;99.90;;;;;;5088698;28;19950;-92
2023/01/01 13:22:25;;;;;;;;;;;12.00;99.90;;;;;;5058815;28;20010;-92
2023/01/01 13:25:09;;;;;;;;;;;12.00;99.90;;;;;;5086558;28;19943;-95
2023/01/01 13:28:03;;;;;;;;;;;12.00;99.90;;;;;;5094075;28;19927;-93
2023/01/01 13:30:35;;;;;;;;;;;12.00;99.90;;;;;;5091764;28;19931;-94
2023/01/01 13:33:22;;;;;;;;;;;12.00;99.90;;;;;;5072918;28;19927;-93
2023/01/01 13:38:44;;;;;;;;;;;12.00;99.90;;;;;;5074125;28;19920;-92
2023/01/01 13:41:25;;;;;;;;;;;12.00;99.90;;;;;;5086088;28;19974;-90
2023/01/01 13:44:11;;;;;;;;;;;12.00;99.90;;;;;;5067025;28;19981;-90
2023/01/01 13:46:42;;;;;;;;;;;12.00;99.90;;;;;;5067055;28;20770;-92
2023/01/01 13:49:08;;;;;;;;;;;12.00;99.90;;;;;;5070773;28;20422;-91
2023/01/01 13:51:34;;;;;;;;;;;11.90;99.90;;;;;;5084328;28;19928;-91
2023/01/01 13:54:18;;;;;;;;;;;12.00;99.90;;;;;;5072023;28;19928;-89
2023/01/01 13:56:47;;;;;;;;;;;11.90;99.90;;;;;;5079463;28;20007;-89
2023/01/01 13:59:16;;;;;;;;;;;11.90;99.90;;;;;;5065975;28;20388;-90
2023/01/01 14:01:47;;;;;;;;;;;11.90;99.90;;;;;;5067502;28;20000;-90
2023/01/01 14:04:35;;;;;;;;;;;11.90;99.90;;;;;;5086788;28;20014;-90
2023/01/01 14:07:05;;;;;;;;;;;11.90;99.90;;;;;;5083018;28;19920;-90
2023/01/01 14:09:31;;;;;;;;;;;11.90;99.90;;;;;;5070645;28;20363;-90
2023/01/01 14:12:06;;;;;;;;;;;11.90;99.90;;;;;;5070862;28;19939;-90
2023/01/01 14:14:34;;;;;;;;;;;11.90;99.90;;;;;;5070454;28;19951;-91
2023/01/01 14:17:01;;;;;;;;;;;11.90;99.90;;;;;;5053027;28;20008;-91
2023/01/01 14:19:27;;;;;;;;;;;11.90;99.90;;;;;;5085838;28;19995;-90
2023/01/01 14:21:53;;;;;;;;;;;11.90;99.90;;;;;;5062601;28;20008;-92
2023/01/01 14:24:21;;;;;;;;;;;11.90;99.90;;;;;;5067288;28;19920;-91
2023/01/01 14:26:47;;;;;;;;;;;11.90;99.90;;;;;;5084846;28;20053;-91
2023/01/01 14:29:17;;;;;;;;;;;11.80;99.90;;;;;;5075167;28;19980;-91
2023/01/01 14:31:43;;;;;;;;;;;11.80;99.90;;;;;;5074233;28;20295;-90
2023/01/01 14:34:35;;;;;;;;;;;11.80;99.90;;;;;;5087768;28;19993;-87
2023/01/01 14:37:02;;;;;;;;;;;11.80;99.90;;;;;;5069700;28;20017;-96